Time;durP1;ratioP1;P1;durP2;ratioP2;P2;SDS_P1;SDS_P2;PMS_P1;PMS_P2;Temp;Humidity;BMP_temperature;BMP_pressure;BME280_temperature;BME280_humidity;BME280_pressure;Samples;Min_cycle;Max_cycle;Signal;HPM_P1;HPM_P2
2022/07/21 00:00:30;;;;;;;3.85;2.63;;;26.40;58.30;;;;;;5010367;28;20050;-74
2022/07/21 00:02:58;;;;;;;4.38;2.70;;;26.40;58.30;;;;;;5008249;28;20053;-74
2022/07/21 00:05:25;;;;;;;2.97;2.55;;;26.40;58.40;;;;;;5010106;28;20076;-74
2022/07/21 00:07:52;;;;;;;3.67;2.60;;;26.40;58.40;;;;;;5010022;28;20057;-74
2022/07/21 00:10:19;;;;;;;2.92;2.42;;;26.40;58.40;;;;;;5010236;28;20053;-74
2022/07/21 00:12:46;;;;;;;4.82;2.70;;;26.40;58.40;;;;;;5010071;28;20454;-75
2022/07/21 00:15:14;;;;;;;3.67;3.00;;;26.40;59.70;;;;;;5009819;28;20100;-75
2022/07/21 00:17:42;;;;;;;3.67;2.53;;;26.30;58.30;;;;;;5002739;28;20093;-74
2022/07/21 00:20:10;;;;;;;3.28;2.67;;;26.40;58.40;;;;;;4990306;28;20050;-74
2022/07/21 00:22:38;;;;;;;2.80;2.28;;;26.40;58.40;;;;;;4990517;28;20632;-74
2022/07/21 00:25:05;;;;;;;4.70;2.70;;;26.40;58.50;;;;;;4990202;28;20069;-75
2022/07/21 00:27:32;;;;;;;3.92;2.60;;;26.40;58.50;;;;;;4990391;28;20058;-74
2022/07/21 00:29:59;;;;;;;3.58;2.63;;;26.30;58.40;;;;;;4990287;28;20097;-74
2022/07/21 00:32:26;;;;;;;4.50;2.60;;;26.30;58.40;;;;;;4990148;28;20114;-74
2022/07/21 00:34:55;;;;;;;3.75;2.60;;;26.30;58.50;;;;;;4990366;28;20054;-74
2022/07/21 00:37:23;;;;;;;3.25;2.45;;;26.30;58.50;;;;;;4990272;28;20066;-74
2022/07/21 00:39:50;;;;;;;3.20;2.67;;;26.30;58.50;;;;;;4990226;28;20046;-74
2022/07/21 00:42:21;;;;;;;4.07;2.58;;;26.30;58.50;;;;;;4990110;28;20105;-74
2022/07/21 00:44:48;;;;;;;3.90;2.50;;;26.30;58.50;;;;;;4990021;28;20112;-75
2022/07/21 00:47:15;;;;;;;3.40;2.38;;;26.30;58.60;;;;;;4997701;28;20054;-74
2022/07/21 00:49:44;;;;;;;5.80;2.90;;;26.30;58.60;;;;;;5009625;28;20092;-74
2022/07/21 00:52:12;;;;;;;3.83;2.65;;;26.30;58.60;;;;;;5009907;28;20507;-74
2022/07/21 00:54:39;;;;;;;3.15;2.38;;;26.30;58.60;;;;;;5009506;28;20247;-74
2022/07/21 00:57:06;;;;;;;4.82;2.90;;;26.20;58.60;;;;;;5009969;28;20060;-74
2022/07/21 00:59:33;;;;;;;3.33;2.58;;;26.30;58.70;;;;;;5009684;28;20046;-74
2022/07/21 01:02:00;;;;;;;4.50;2.70;;;26.20;58.70;;;;;;5001410;28;20112;-74
2022/07/21 01:04:26;;;;;;;3.28;2.55;;;26.20;58.70;;;;;;4993965;28;20117;-74
2022/07/21 01:06:54;;;;;;;3.80;2.80;;;26.20;58.70;;;;;;4993894;28;20062;-74
2022/07/21 01:09:22;;;;;;;3.80;2.60;;;26.20;58.70;;;;;;4993996;28;20389;-74
2022/07/21 01:11:49;;;;;;;4.22;2.72;;;26.20;58.70;;;;;;4994253;28;20100;-74
2022/07/21 01:14:16;;;;;;;4.85;2.80;;;26.20;58.80;;;;;;4993962;28;20066;-74
2022/07/21 01:16:43;;;;;;;3.92;2.72;;;26.20;58.80;;;;;;5001947;28;20454;-74
2022/07/21 01:19:10;;;;;;;4.05;2.58;;;26.20;58.80;;;;;;5013454;28;20065;-74
2022/07/21 01:21:39;;;;;;;3.47;2.80;;;25.10;59.30;;;;;;5012870;28;20104;-74
2022/07/21 01:24:06;;;;;;;3.70;2.75;;;26.20;58.90;;;;;;5013090;28;20443;-74
2022/07/21 01:26:40;;;;;;;3.72;2.78;;;26.20;58.90;;;;;;5012796;28;20096;-74
2022/07/21 01:29:08;;;;;;;4.15;2.78;;;26.10;58.80;;;;;;5013302;28;20061;-74
2022/07/21 01:31:35;;;;;;;3.40;2.30;;;26.10;58.90;;;;;;5003745;28;20435;-74
2022/07/21 01:34:02;;;;;;;4.07;2.80;;;26.10;58.90;;;;;;4993289;28;20537;-74
2022/07/21 01:36:29;;;;;;;4.03;2.72;;;26.10;58.90;;;;;;4993474;28;20677;-75
2022/07/21 01:41:41;;;;;;;3.88;2.75;;;26.10;59.00;;;;;;5009154;28;20504;-74
2022/07/21 01:44:09;;;;;;;3.67;2.67;;;26.10;59.00;;;;;;4993031;28;20057;-74
2022/07/21 01:46:37;;;;;;;4.40;2.90;;;26.10;59.00;;;;;;4994320;28;20704;-74
2022/07/21 01:49:04;;;;;;;4.30;2.45;;;26.10;59.00;;;;;;4993021;28;20108;-74
2022/07/21 01:51:31;;;;;;;3.72;2.80;;;26.10;59.10;;;;;;4993096;28;20042;-75
2022/07/21 01:53:59;;;;;;;6.35;2.97;;;26.00;59.00;;;;;;4993214;28;20112;-73
2022/07/21 01:56:26;;;;;;;5.10;3.10;;;26.00;59.00;;;;;;4993403;28;20054;-73
2022/07/21 01:58:54;;;;;;;4.63;2.70;;;26.00;59.10;;;;;;4992969;28;20109;-74
2022/07/21 02:01:22;;;;;;;3.38;2.65;;;26.00;59.10;;;;;;5009966;28;20542;-74
2022/07/21 02:03:49;;;;;;;4.53;2.75;;;26.00;59.10;;;;;;5012412;28;20125;-74
2022/07/21 02:06:16;;;;;;;3.38;2.70;;;26.00;59.20;;;;;;5012313;28;20050;-74
2022/07/21 02:08:43;;;;;;;3.83;2.78;;;26.00;59.20;;;;;;5012453;28;20054;-74
2022/07/21 02:11:11;;;;;;;4.43;2.95;;;26.00;59.20;;;;;;5012210;28;20062;-74
2022/07/21 02:13:38;;;;;;;4.45;2.78;;;26.00;61.00;;;;;;5011216;28;20058;-74
2022/07/21 02:16:06;;;;;;;4.40;2.55;;;25.90;59.20;;;;;;4994861;28;20054;-74
2022/07/21 02:18:33;;;;;;;6.53;3.20;;;25.90;59.20;;;;;;4992938;28;20057;-73
2022/07/21 02:20:59;;;;;;;4.15;3.10;;;25.90;59.20;;;;;;4992639;28;20046;-74
2022/07/21 02:23:26;;;;;;;4.13;2.63;;;25.90;59.20;;;;;;4992212;28;20054;-74
2022/07/21 02:25:53;;;;;;;4.78;2.80;;;26.00;59.40;;;;;;4992509;28;20054;-74
2022/07/21 02:28:22;;;;;;;4.32;2.90;;;25.90;59.30;;;;;;4992559;28;20058;-74
2022/07/21 02:30:49;;;;;;;4.88;2.92;;;25.90;59.30;;;;;;5008985;28;20046;-74
2022/07/21 02:33:15;;;;;;;4.00;2.97;;;25.90;59.40;;;;;;5011593;28;20054;-74
2022/07/21 02:35:42;;;;;;;4.15;2.83;;;25.90;59.40;;;;;;5011907;28;20061;-74
2022/07/21 02:38:09;;;;;;;4.57;2.80;;;25.90;59.40;;;;;;5011529;28;20057;-74
2022/07/21 02:40:36;;;;;;;5.13;2.90;;;25.90;59.40;;;;;;5011846;28;20112;-74
2022/07/21 02:43:03;;;;;;;4.78;2.95;;;25.40;60.30;;;;;;5012642;28;20081;-74
2022/07/21 02:45:32;;;;;;;4.15;2.75;;;25.90;59.40;;;;;;4995023;28;20064;-74
2022/07/21 02:47:59;;;;;;;3.75;2.90;;;25.90;59.40;;;;;;4991788;28;20101;-74
2022/07/21 02:50:28;;;;;;;4.43;3.03;;;25.80;59.40;;;;;;4992124;28;20054;-74
2022/07/21 02:52:56;;;;;;;4.80;2.92;;;25.80;59.40;;;;;;4991884;28;20137;-74
2022/07/21 02:55:22;;;;;;;5.03;3.00;;;25.80;60.30;;;;;;4991957;28;20050;-74
2022/07/21 02:57:49;;;;;;;4.63;3.13;;;25.80;59.50;;;;;;4991678;28;20054;-74
2022/07/21 03:00:17;;;;;;;4.53;3.20;;;25.80;59.40;;;;;;4991818;28;20081;-74
2022/07/21 03:02:45;;;;;;;4.40;3.15;;;25.80;59.50;;;;;;5011511;28;20133;-74
2022/07/21 03:05:11;;;;;;;3.95;3.00;;;25.80;59.50;;;;;;5011113;28;20137;-74
2022/07/21 03:07:39;;;;;;;5.35;3.45;;;25.80;59.50;;;;;;5011258;28;20061;-75
2022/07/21 03:10:06;;;;;;;3.65;2.95;;;25.80;59.60;;;;;;5011402;28;20477;-75
2022/07/21 03:12:33;;;;;;;5.30;2.95;;;25.70;59.50;;;;;;5011051;28;20049;-74
2022/07/21 03:15:00;;;;;;;4.00;2.83;;;25.70;59.60;;;;;;4994259;28;20084;-74
2022/07/21 03:17:26;;;;;;;3.75;2.88;;;25.70;59.50;;;;;;4991635;28;20058;-74
2022/07/21 03:19:54;;;;;;;3.42;2.90;;;25.70;59.60;;;;;;4991502;28;20085;-74
2022/07/21 03:22:21;;;;;;;5.03;3.33;;;25.70;59.60;;;;;;4991475;28;20461;-74
2022/07/21 03:24:50;;;;;;;6.93;3.75;;;25.70;59.60;;;;;;4991585;28;20099;-74
2022/07/21 03:27:17;;;;;;;4.47;2.90;;;25.70;59.60;;;;;;4991643;28;20058;-74
2022/07/21 03:29:44;;;;;;;4.20;3.10;;;25.70;59.70;;;;;;5007508;28;20064;-73
2022/07/21 03:32:11;;;;;;;4.07;3.20;;;25.70;59.70;;;;;;5010641;28;20060;-74
2022/07/21 03:34:37;;;;;;;4.85;3.15;;;25.70;59.70;;;;;;5010455;28;20058;-74
2022/07/21 03:37:05;;;;;;;4.65;3.20;;;25.70;59.80;;;;;;5010775;28;20064;-74
2022/07/21 03:39:32;;;;;;;5.07;3.38;;;25.70;59.80;;;;;;5010795;28;20053;-74
2022/07/21 03:41:59;;;;;;;3.85;3.10;;;25.60;59.70;;;;;;5010375;28;20054;-74
2022/07/21 03:44:28;;;;;;;4.53;3.50;;;25.70;59.80;;;;;;4994476;28;20060;-74
2022/07/21 03:46:56;;;;;;;3.90;3.10;;;25.50;61.10;;;;;;4991048;28;20145;-74
2022/07/21 03:49:23;;;;;;;4.03;2.92;;;25.80;59.90;;;;;;4991056;28;20050;-74
2022/07/21 03:51:49;;;;;;;4.50;3.13;;;25.60;59.70;;;;;;4990654;28;20058;-75
2022/07/21 03:54:17;;;;;;;3.70;2.95;;;25.60;59.70;;;;;;4990826;28;20508;-75
2022/07/21 03:56:44;;;;;;;4.78;3.30;;;25.60;59.70;;;;;;4990983;28;20057;-74
2022/07/21 03:59:11;;;;;;;4.35;3.00;;;25.60;59.70;;;;;;5006478;28;20602;-74
2022/07/21 04:01:38;;;;;;;3.38;2.88;;;25.60;59.70;;;;;;5009981;28;20102;-74
2022/07/21 04:04:05;;;;;;;3.65;3.00;;;25.60;59.70;;;;;;5009845;28;20418;-74
2022/07/21 04:06:32;;;;;;;5.43;3.28;;;25.60;59.80;;;;;;5010404;28;20141;-74
2022/07/21 04:08:58;;;;;;;3.75;3.00;;;25.60;59.80;;;;;;5010641;28;20088;-74
2022/07/21 04:11:30;;;;;;;4.53;2.97;;;25.60;59.80;;;;;;5010963;28;20130;-74
2022/07/21 04:13:56;;;;;;;4.05;3.10;;;25.50;59.70;;;;;;4994527;28;20090;-74
2022/07/21 04:16:23;;;;;;;3.72;3.17;;;25.50;59.70;;;;;;4990800;28;20058;-74
2022/07/21 04:18:50;;;;;;;5.50;3.60;;;25.50;59.70;;;;;;4990437;28;20141;-74
2022/07/21 04:21:17;;;;;;;4.10;3.20;;;25.50;59.60;;;;;;4990150;28;20468;-74
2022/07/21 04:23:43;;;;;;;3.25;2.95;;;25.50;59.80;;;;;;4990240;28;20125;-74
2022/07/21 04:26:10;;;;;;;4.93;3.28;;;25.50;59.80;;;;;;4990683;28;20050;-74
2022/07/21 04:28:38;;;;;;;4.15;2.90;;;25.50;59.90;;;;;;4992946;28;20055;-74
2022/07/21 04:31:05;;;;;;;3.83;3.00;;;25.50;59.90;;;;;;4990617;28;20130;-74
2022/07/21 04:33:32;;;;;;;4.25;3.30;;;25.50;59.90;;;;;;4990328;28;20058;-74
2022/07/21 04:35:59;;;;;;;4.65;3.28;;;25.50;59.90;;;;;;4990927;28;20156;-74
2022/07/21 04:38:26;;;;;;;3.97;3.17;;;25.50;59.90;;;;;;4993792;28;20054;-74
2022/07/21 04:40:52;;;;;;;3.88;3.22;;;25.50;59.90;;;;;;4994973;28;20142;-74
2022/07/21 04:43:19;;;;;;;3.50;2.88;;;25.50;59.90;;;;;;4994486;28;20054;-75
2022/07/21 04:45:48;;;;;;;4.05;3.28;;;25.50;59.90;;;;;;4994527;28;20058;-74
2022/07/21 04:48:14;;;;;;;4.32;3.08;;;25.50;60.00;;;;;;4994350;28;20704;-77
2022/07/21 04:50:41;;;;;;;2.95;2.50;;;25.50;60.00;;;;;;4994827;28;20060;-74
2022/07/21 04:53:09;;;;;;;3.58;3.00;;;25.50;59.90;;;;;;4994356;28;20138;-74
2022/07/21 04:55:36;;;;;;;5.55;3.05;;;25.40;59.80;;;;;;4993836;28;20055;-75
2022/07/21 04:58:04;;;;;;;4.20;3.22;;;25.80;61.90;;;;;;4993473;28;20060;-74
2022/07/21 05:00:31;;;;;;;4.18;3.08;;;25.40;59.80;;;;;;4993998;28;20369;-74
2022/07/21 05:02:59;;;;;;;4.55;3.20;;;25.40;59.80;;;;;;5009713;28;20051;-74
2022/07/21 05:05:26;;;;;;;3.33;2.80;;;25.40;59.80;;;;;;4993842;28;20137;-75
2022/07/21 05:07:53;;;;;;;3.45;3.00;;;25.40;59.80;;;;;;5010333;28;20142;-75
2022/07/21 05:10:21;;;;;;;4.07;3.17;;;25.50;59.80;;;;;;4994038;28;20141;-75
2022/07/21 05:12:47;;;;;;;3.88;3.03;;;25.40;59.80;;;;;;5008573;28;20076;-75
2022/07/21 05:15:15;;;;;;;3.92;3.17;;;25.40;59.80;;;;;;5013516;28;20454;-75
2022/07/21 05:17:42;;;;;;;4.07;3.00;;;25.40;59.80;;;;;;5013568;28;20057;-75
2022/07/21 05:20:11;;;;;;;3.95;3.00;;;25.40;60.30;;;;;;5014759;28;20050;-75
2022/07/21 05:22:37;;;;;;;4.13;2.88;;;25.50;61.80;;;;;;5013238;28;20141;-74
2022/07/21 05:25:05;;;;;;;3.88;3.25;;;25.40;59.80;;;;;;5013374;28;20057;-74
2022/07/21 05:27:32;;;;;;;4.70;3.15;;;25.40;59.80;;;;;;5001823;28;20065;-74
2022/07/21 05:29:59;;;;;;;4.22;3.03;;;25.40;59.80;;;;;;4993856;28;20060;-74
2022/07/21 05:32:26;;;;;;;3.70;3.17;;;25.50;61.10;;;;;;4993702;28;20050;-74
2022/07/21 05:34:53;;;;;;;4.07;3.13;;;27.30;61.10;;;;;;4993385;28;20496;-74
2022/07/21 05:37:21;;;;;;;3.58;3.10;;;25.30;59.80;;;;;;4993555;28;20136;-74
2022/07/21 05:39:48;;;;;;;3.78;2.90;;;25.20;61.00;;;;;;4993309;28;20054;-74
2022/07/21 05:42:14;;;;;;;4.22;3.30;;;25.30;59.80;;;;;;4993547;28;20133;-74
2022/07/21 05:44:41;;;;;;;4.10;3.30;;;25.30;59.80;;;;;;4993380;28;20050;-74
2022/07/21 05:47:08;;;;;;;4.30;3.03;;;25.30;59.80;;;;;;4994321;28;20132;-74
2022/07/21 05:49:35;;;;;;;4.45;3.03;;;25.30;59.80;;;;;;4993153;28;20141;-74
2022/07/21 05:52:01;;;;;;;4.20;3.40;;;25.30;59.80;;;;;;4993353;28;20061;-74
2022/07/21 05:54:29;;;;;;;4.43;3.17;;;25.30;59.80;;;;;;4993080;28;20129;-74
2022/07/21 05:56:58;;;;;;;3.83;3.28;;;25.30;59.80;;;;;;5001730;28;20085;-74
2022/07/21 05:59:24;;;;;;;5.25;3.50;;;25.40;61.00;;;;;;5012791;28;20490;-74
2022/07/21 06:01:51;;;;;;;3.70;3.15;;;25.30;59.90;;;;;;5012296;28;20046;-74
2022/07/21 06:04:18;;;;;;;4.35;3.22;;;25.30;59.80;;;;;;5012335;28;20076;-74
2022/07/21 06:06:46;;;;;;;5.38;3.58;;;25.30;59.80;;;;;;5013218;28;20137;-73
2022/07/21 06:09:13;;;;;;;4.22;2.92;;;25.30;59.80;;;;;;5013161;28;20140;-73
2022/07/21 06:11:41;;;;;;;4.10;3.22;;;25.30;59.90;;;;;;5004758;28;20054;-73
2022/07/21 06:14:08;;;;;;;3.65;3.20;;;25.30;60.00;;;;;;4977191;28;20089;-73
2022/07/21 06:16:35;;;;;;;3.95;3.35;;;25.20;59.80;;;;;;4992927;28;20491;-73
2022/07/21 06:19:02;;;;;;;4.63;3.40;;;25.30;59.90;;;;;;4992861;28;20046;-74
2022/07/21 06:21:29;;;;;;;4.28;3.53;;;25.30;59.90;;;;;;4992658;28;20058;-74
2022/07/21 06:23:55;;;;;;;4.78;3.78;;;25.30;59.90;;;;;;4992312;28;20138;-74
2022/07/21 06:26:25;;;;;;;4.00;3.53;;;25.20;59.80;;;;;;5000772;28;20113;-73
2022/07/21 06:28:59;;;;;;;4.82;3.20;;;25.20;60.40;;;;;;5012275;28;20096;-74
2022/07/21 06:31:26;;;;;;;3.75;3.38;;;25.20;59.80;;;;;;5000699;28;20133;-73
2022/07/21 06:33:52;;;;;;;4.20;3.55;;;25.20;59.90;;;;;;4992618;28;20337;-73
2022/07/21 06:36:19;;;;;;;4.68;3.42;;;25.20;59.80;;;;;;4993031;28;20055;-74
2022/07/21 06:38:46;;;;;;;3.97;3.60;;;25.20;59.90;;;;;;4992549;28;20058;-74
2022/07/21 06:41:12;;;;;;;3.38;3.08;;;25.20;59.90;;;;;;4993291;28;20053;-74
2022/07/21 06:43:40;;;;;;;3.40;3.10;;;25.20;59.90;;;;;;4993155;28;20526;-74
2022/07/21 06:46:09;;;;;;;3.97;3.50;;;25.20;59.90;;;;;;4992121;28;20129;-74
2022/07/21 06:48:35;;;;;;;3.85;3.35;;;25.20;59.90;;;;;;4992012;28;20488;-74
2022/07/21 06:51:02;;;;;;;4.18;3.60;;;25.20;59.90;;;;;;4991609;28;20061;-74
2022/07/21 06:53:29;;;;;;;3.95;3.28;;;25.20;59.90;;;;;;4991416;28;20125;-74
2022/07/21 06:55:56;;;;;;;3.33;2.97;;;25.20;59.90;;;;;;4992090;28;20058;-75
2022/07/21 06:58:24;;;;;;;3.47;2.83;;;25.20;59.90;;;;;;4989941;28;20506;-75
2022/07/21 07:00:51;;;;;;;5.65;3.53;;;25.20;59.90;;;;;;4992090;28;20050;-75
2022/07/21 07:03:19;;;;;;;3.90;3.22;;;25.20;59.90;;;;;;4991030;28;20074;-74
2022/07/21 07:05:47;;;;;;;4.82;3.55;;;25.20;59.90;;;;;;4991336;28;20140;-74
2022/07/21 07:08:13;;;;;;;5.15;3.45;;;25.20;59.90;;;;;;4991675;28;20472;-74
2022/07/21 07:10:40;;;;;;;4.47;3.35;;;25.20;61.60;;;;;;4991488;28;20136;-74
2022/07/21 07:13:07;;;;;;;3.78;3.22;;;25.20;60.40;;;;;;4994400;28;20129;-74
2022/07/21 07:15:34;;;;;;;4.28;3.35;;;25.20;59.90;;;;;;4991510;28;20133;-74
2022/07/21 07:18:01;;;;;;;5.50;4.60;;;25.20;59.90;;;;;;4990763;28;20133;-74
2022/07/21 07:20:29;;;;;;;8.18;5.50;;;25.20;60.20;;;;;;4991821;28;20058;-75
2022/07/21 07:22:56;;;;;;;6.68;5.35;;;25.20;60.20;;;;;;5007471;28;20050;-74
2022/07/21 07:25:23;;;;;;;8.25;5.00;;;25.20;60.40;;;;;;4991691;28;20145;-75
2022/07/21 07:27:51;;;;;;;11.15;5.95;;;25.20;60.50;;;;;;5010109;28;20073;-74
2022/07/21 07:30:18;;;;;;;10.02;6.75;;;25.20;60.50;;;;;;5010938;28;20057;-75
2022/07/21 07:32:44;;;;;;;11.70;6.43;;;25.10;60.50;;;;;;5010855;28;20136;-75
2022/07/21 07:35:12;;;;;;;10.85;6.70;;;25.10;60.60;;;;;;5011068;28;20069;-75
2022/07/21 07:37:40;;;;;;;8.45;6.07;;;25.10;60.70;;;;;;5010877;28;20112;-75
2022/07/21 07:40:09;;;;;;;10.95;6.57;;;25.10;60.70;;;;;;5011038;28;20117;-74
2022/07/21 07:42:36;;;;;;;10.98;6.90;;;25.10;60.70;;;;;;5008921;28;20046;-74
2022/07/21 07:45:03;;;;;;;9.90;6.78;;;25.10;60.80;;;;;;5011204;28;20077;-74
2022/07/21 07:47:29;;;;;;;9.68;6.18;;;25.10;60.80;;;;;;5011295;28;20054;-74
2022/07/21 07:49:56;;;;;;;9.20;6.32;;;25.10;60.80;;;;;;5011149;28;20081;-74
2022/07/21 07:52:23;;;;;;;8.35;6.63;;;25.10;60.90;;;;;;5010827;28;20080;-76
2022/07/21 07:54:51;;;;;;;8.23;6.20;;;25.10;60.80;;;;;;5010687;28;20487;-75
2022/07/21 07:57:18;;;;;;;6.95;5.78;;;25.20;60.90;;;;;;4994365;28;20580;-74
2022/07/21 07:59:45;;;;;;;7.15;5.88;;;25.10;60.80;;;;;;4990196;28;20058;-74
2022/07/21 08:02:11;;;;;;;7.53;6.03;;;25.10;60.70;;;;;;4989492;28;20057;-75
2022/07/21 08:04:40;;;;;;;8.43;6.90;;;25.20;60.70;;;;;;4990377;28;20140;-75
2022/07/21 08:07:07;;;;;;;8.68;7.72;;;25.20;60.80;;;;;;4990814;28;20141;-75
2022/07/21 08:09:34;;;;;;;12.20;7.60;;;25.10;62.60;;;;;;4992752;28;20050;-75
2022/07/21 08:12:02;;;;;;;9.55;7.50;;;25.20;61.10;;;;;;4990792;28;20065;-75
2022/07/21 08:14:28;;;;;;;9.30;7.57;;;25.20;61.10;;;;;;4990348;28;20056;-75
2022/07/21 08:16:58;;;;;;;10.43;7.95;;;25.20;61.10;;;;;;4990421;28;20065;-75
2022/07/21 08:19:25;;;;;;;8.88;7.90;;;25.30;62.90;;;;;;4990849;28;20424;-74
2022/07/21 08:21:51;;;;;;;9.48;7.60;;;25.20;61.20;;;;;;4991361;28;20069;-74
2022/07/21 08:24:18;;;;;;;8.05;6.80;;;25.20;61.10;;;;;;4990730;28;20065;-74
2022/07/21 08:26:46;;;;;;;8.10;6.85;;;25.20;61.10;;;;;;4988013;28;20137;-74
2022/07/21 08:29:14;;;;;;;8.30;7.00;;;25.30;61.20;;;;;;4990452;28;20072;-74
2022/07/21 08:31:41;;;;;;;8.65;7.75;;;25.30;61.20;;;;;;4990550;28;20057;-75
2022/07/21 08:34:07;;;;;;;8.07;7.10;;;25.40;61.40;;;;;;4989769;28;20484;-74
2022/07/21 08:36:34;;;;;;;9.82;8.15;;;25.30;61.30;;;;;;4990530;28;20053;-74
2022/07/21 08:39:01;;;;;;;10.18;7.97;;;25.30;61.30;;;;;;4991070;28;20145;-75
2022/07/21 08:41:28;;;;;;;8.45;6.95;;;24.10;62.10;;;;;;4989361;28;20133;-75
2022/07/21 08:43:54;;;;;;;9.43;7.20;;;25.40;61.30;;;;;;4988001;28;20054;-75
2022/07/21 08:46:24;;;;;;;8.25;7.40;;;25.40;61.20;;;;;;4989612;28;20149;-75
2022/07/21 08:48:50;;;;;;;9.30;6.97;;;25.40;61.20;;;;;;4988659;28;20138;-75
2022/07/21 08:51:17;;;;;;;8.63;7.05;;;25.40;61.10;;;;;;4988179;28;20129;-75
2022/07/21 08:53:44;;;;;;;8.68;7.05;;;25.40;61.10;;;;;;4988429;28;20057;-75
2022/07/21 08:56:12;;;;;;;9.20;6.95;;;25.50;61.20;;;;;;4998052;28;20054;-75
2022/07/21 08:58:38;;;;;;;8.30;6.88;;;25.50;61.10;;;;;;4988170;28;20080;-75
2022/07/21 09:01:05;;;;;;;7.47;6.70;;;25.50;61.10;;;;;;4988947;28;20152;-73
2022/07/21 09:03:33;;;;;;;8.48;6.93;;;25.50;62.50;;;;;;4990624;28;20054;-73
2022/07/21 09:06:02;;;;;;;7.63;6.65;;;25.50;61.00;;;;;;4990356;28;20050;-73
2022/07/21 09:08:31;;;;;;;7.55;6.60;;;25.60;61.00;;;;;;4990354;28;20058;-73
2022/07/21 09:11:09;;;;;;;8.52;6.63;;;25.60;61.00;;;;;;4990620;28;20058;-73
2022/07/21 09:13:35;;;;;;;8.02;6.65;;;25.60;61.00;;;;;;4989990;28;20531;-73
2022/07/21 09:16:02;;;;;;;7.93;7.03;;;25.60;61.00;;;;;;4990137;28;20133;-73
2022/07/21 09:18:29;;;;;;;8.13;6.78;;;25.60;61.10;;;;;;4990660;28;20133;-74
2022/07/21 09:20:58;;;;;;;8.10;7.15;;;24.30;62.00;;;;;;4991377;28;20301;-73
2022/07/21 09:23:26;;;;;;;7.13;6.25;;;25.60;61.20;;;;;;4990158;28;20492;-72
2022/07/21 09:25:54;;;;;;;10.40;6.97;;;25.60;61.20;;;;;;4994061;28;20149;-73
2022/07/21 09:28:21;;;;;;;8.20;6.45;;;25.60;61.20;;;;;;5007706;28;20088;-73
2022/07/21 09:30:56;;;;;;;6.97;6.28;;;25.20;62.30;;;;;;5014462;28;20062;-73
2022/07/21 09:33:24;;;;;;;;;;;25.60;61.30;;;;;;5008049;28;20129;-73
2022/07/21 09:36:03;;;;;;;7.35;6.50;;;25.50;61.10;;;;;;4999011;28;19928;-72
2022/07/21 09:38:31;;;;;;;7.28;6.47;;;25.50;61.30;;;;;;5008970;28;20097;-72
2022/07/21 09:41:05;;;;;;;7.78;6.97;;;25.50;61.40;;;;;;4993445;28;20080;-72
2022/07/21 09:43:33;;;;;;;8.32;6.53;;;25.50;61.30;;;;;;4993083;28;20491;-72
2022/07/21 09:46:02;;;;;;;7.68;6.53;;;25.50;61.30;;;;;;4993649;28;20492;-72
2022/07/21 09:48:36;;;;;;;7.93;6.38;;;25.50;61.40;;;;;;5005388;28;20058;-72
2022/07/21 09:51:27;;;;;;;7.78;6.68;;;25.60;61.40;;;;;;5009616;28;20058;-72
2022/07/21 09:53:56;;;;;;;7.00;6.30;;;25.50;61.30;;;;;;4993500;28;20769;-73
2022/07/21 09:56:23;;;;;;;8.13;7.28;;;25.70;61.50;;;;;;4993674;28;20133;-72
2022/07/21 09:58:51;;;;;;;7.60;6.50;;;25.50;61.50;;;;;;4997330;28;20113;-71
2022/07/21 10:01:18;;;;;;;8.70;6.90;;;25.00;61.20;;;;;;4992205;28;20050;-71
2022/07/21 10:03:45;;;;;;;7.18;6.45;;;25.50;61.40;;;;;;4992214;28;20129;-72
2022/07/21 10:06:12;;;;;;;7.55;6.75;;;25.50;61.40;;;;;;4993088;28;20065;-72
2022/07/21 10:08:40;;;;;;;8.00;6.32;;;25.60;61.40;;;;;;4992971;28;20060;-72
2022/07/21 10:11:07;;;;;;;7.20;6.50;;;25.60;61.30;;;;;;4993894;28;20046;-72
2022/07/21 10:13:34;;;;;;;7.10;6.40;;;25.60;61.20;;;;;;4992586;28;20500;-72
2022/07/21 10:16:01;;;;;;;6.63;5.97;;;25.60;61.20;;;;;;4992299;28;20137;-72
2022/07/21 10:18:33;;;;;;;6.60;6.00;;;25.60;61.10;;;;;;5006824;28;20060;-72
2022/07/21 10:21:03;;;;;;;8.43;6.55;;;25.60;61.00;;;;;;5012876;28;20124;-72
2022/07/21 10:23:35;;;;;;;6.53;5.82;;;24.30;61.90;;;;;;5010060;28;20058;-72
2022/07/21 10:26:05;;;;;;;7.03;6.32;;;25.70;61.00;;;;;;4993054;28;20050;-72
2022/07/21 10:28:32;;;;;;;7.13;6.43;;;25.70;61.00;;;;;;4992594;28;20467;-73
2022/07/21 10:30:59;;;;;;;6.03;5.53;;;25.70;60.90;;;;;;4992893;28;20054;-72
2022/07/21 10:34:05;;;;;;;7.63;6.03;;;25.00;62.40;;;;;;4992946;28;20049;-72
2022/07/21 10:36:42;;;;;;;7.28;6.57;;;25.80;60.80;;;;;;4985407;28;20137;-72
2022/07/21 10:39:19;;;;;;;7.07;5.88;;;25.70;60.70;;;;;;4992802;28;20054;-72
2022/07/21 10:41:48;;;;;;;7.22;6.47;;;25.70;60.70;;;;;;4992594;28;20514;-72
2022/07/21 10:44:38;;;;;;;6.63;5.97;;;25.80;60.80;;;;;;4992199;28;20133;-72
2022/07/21 10:47:06;;;;;;;7.40;6.13;;;25.80;60.70;;;;;;5005104;28;20046;-72
2022/07/21 10:49:47;;;;;;;7.63;6.05;;;25.70;60.70;;;;;;4992628;28;20141;-73
2022/07/21 10:52:51;;;;;;;7.25;6.55;;;25.70;60.60;;;;;;4991963;28;20091;-72
2022/07/21 10:55:23;;;;;;;6.88;5.93;;;25.70;60.60;;;;;;4992115;28;20061;-73
2022/07/21 10:58:10;;;;;;;8.05;6.13;;;25.70;60.70;;;;;;4992350;28;20064;-72
2022/07/21 11:00:37;;;;;;;6.50;5.90;;;25.70;60.60;;;;;;5008367;28;20081;-72
2022/07/21 11:03:15;;;;;;;6.78;6.07;;;25.80;60.80;;;;;;4992521;28;20161;-72
2022/07/21 11:06:13;;;;;;;6.80;6.10;;;25.80;60.70;;;;;;4991610;28;20468;-72
2022/07/21 11:08:40;;;;;;;6.72;5.85;;;25.70;60.60;;;;;;4991623;28;20083;-73
2022/07/21 11:11:08;;;;;;;6.75;6.15;;;25.50;62.60;;;;;;4991796;28;20046;-73
2022/07/21 11:14:14;;;;;;;6.60;5.90;;;25.70;60.60;;;;;;5007746;28;20057;-73
2022/07/21 11:17:08;;;;;;;;;;;25.70;60.60;;;;;;4977416;28;20411;-73
2022/07/21 11:19:38;;;;;;;6.47;5.88;;;25.70;60.60;;;;;;5005870;28;19968;-72
2022/07/21 11:22:06;;;;;;;6.88;6.15;;;25.60;60.70;;;;;;4991191;28;20078;-72
2022/07/21 11:24:33;;;;;;;7.00;6.30;;;25.70;60.70;;;;;;4989446;28;20050;-71
2022/07/21 11:27:01;;;;;;;6.50;5.90;;;25.70;60.70;;;;;;4992537;28;20061;-73
2022/07/21 11:29:29;;;;;;;8.23;6.03;;;25.60;60.60;;;;;;4991902;28;20190;-73
2022/07/21 11:31:56;;;;;;;6.57;5.97;;;25.60;60.60;;;;;;4990668;28;20058;-75
2022/07/21 11:34:23;;;;;;;7.00;6.30;;;25.70;60.60;;;;;;4991097;28;20070;-75
2022/07/21 11:36:58;;;;;;;8.55;7.65;;;25.60;62.80;;;;;;4991769;28;20072;-75
2022/07/21 11:39:25;;;;;;;7.85;7.05;;;25.10;62.70;;;;;;4988532;28;20149;-75
2022/07/21 11:41:53;;;;;;;7.88;7.07;;;25.60;60.90;;;;;;4990745;28;20054;-75
2022/07/21 11:44:23;;;;;;;7.60;6.88;;;25.60;61.00;;;;;;4990969;28;20085;-74
2022/07/21 11:46:51;;;;;;;7.25;6.55;;;25.60;61.10;;;;;;4998856;28;20053;-73
2022/07/21 11:49:18;;;;;;;7.82;7.10;;;25.60;61.10;;;;;;5010667;28;20064;-73
2022/07/21 11:51:49;;;;;;;7.72;7.00;;;25.60;61.10;;;;;;5010525;28;20054;-73
2022/07/21 11:54:26;;;;;;;8.77;7.60;;;25.60;61.00;;;;;;5010186;28;20060;-73
2022/07/21 11:56:53;;;;;;;8.45;6.90;;;25.60;61.00;;;;;;5001430;28;20094;-73
2022/07/21 11:59:20;;;;;;;7.90;7.10;;;25.60;61.00;;;;;;4990873;28;20157;-73
2022/07/21 12:01:54;;;;;;;8.23;7.43;;;25.60;61.00;;;;;;4990982;28;20058;-73
2022/07/21 12:04:42;;;;;;;8.52;6.55;;;25.60;60.90;;;;;;4990579;28;20191;-74
2022/07/21 12:07:16;;;;;;;7.93;7.20;;;25.60;60.80;;;;;;5001656;28;20347;-74
2022/07/21 12:09:46;;;;;;;8.60;7.00;;;25.60;61.00;;;;;;4992463;28;20499;-74
2022/07/21 12:12:13;;;;;;;8.25;7.38;;;25.50;61.00;;;;;;4990732;28;20423;-74
2022/07/21 12:14:43;;;;;;;7.97;7.20;;;25.50;61.00;;;;;;4990354;28;20052;-77
2022/07/21 12:17:10;;;;;;;8.25;7.32;;;25.50;61.00;;;;;;4991081;28;20048;-75
2022/07/21 12:19:37;;;;;;;10.05;8.15;;;25.50;61.00;;;;;;4992241;28;20137;-74
2022/07/21 12:22:04;;;;;;;8.43;7.60;;;25.50;61.00;;;;;;4990847;28;20064;-73
2022/07/21 12:24:50;;;;;;;8.85;7.82;;;25.50;61.00;;;;;;4990397;28;20051;-73
2022/07/21 12:27:17;;;;;;;8.75;7.38;;;25.50;60.80;;;;;;5002073;28;20058;-73
2022/07/21 12:29:44;;;;;;;8.23;7.43;;;25.50;61.00;;;;;;5010220;28;20132;-74
2022/07/21 12:32:10;;;;;;;9.38;7.55;;;25.50;61.00;;;;;;5010389;28;20136;-73
2022/07/21 12:34:48;;;;;;;9.35;8.32;;;25.50;61.00;;;;;;5010133;28;20140;-73
2022/07/21 12:37:15;;;;;;;9.20;7.95;;;25.50;61.00;;;;;;4999142;28;20081;-73
2022/07/21 12:42:31;;;;;;;8.82;7.93;;;25.50;61.10;;;;;;4990381;28;20152;-73
2022/07/21 12:44:58;;;;;;;8.55;7.75;;;25.50;61.00;;;;;;4990300;28;20077;-72
2022/07/21 12:47:26;;;;;;;8.82;7.95;;;25.50;61.10;;;;;;5002128;28;20060;-73
2022/07/21 12:50:00;;;;;;;9.07;8.18;;;25.50;61.10;;;;;;5010343;28;20065;-72
2022/07/21 12:52:27;;;;;;;9.43;7.88;;;25.50;61.10;;;;;;5010145;28;20487;-72
2022/07/21 12:54:54;;;;;;;9.43;8.50;;;25.40;61.00;;;;;;5009956;28;20057;-72
2022/07/21 12:57:21;;;;;;;9.82;8.07;;;25.40;61.10;;;;;;4998419;28;20068;-74
2022/07/21 12:59:49;;;;;;;8.93;8.02;;;25.50;61.10;;;;;;4993293;28;20129;-73